createdAt,value
2023-01-12T00:02:07.916Z,7.70
2023-01-12T00:04:35.310Z,8.63
2023-01-12T00:07:01.909Z,8.77
2023-01-12T00:09:28.420Z,11.37
2023-01-12T00:11:54.914Z,8.23
2023-01-12T00:14:21.300Z,6.83
2023-01-12T00:16:47.677Z,8.97
2023-01-12T00:19:19.071Z,7.57
2023-01-12T00:21:59.430Z,5.47
2023-01-12T00:24:34.733Z,13.33
2023-01-12T00:27:09.703Z,10.40
2023-01-12T00:29:37.195Z,9.63
2023-01-12T00:32:05.279Z,8.40
2023-01-12T00:34:31.692Z,9.70
2023-01-12T00:37:00.631Z,8.73
2023-01-12T00:39:27.284Z,6.93
2023-01-12T00:42:12.098Z,10.10
2023-01-12T00:44:57.315Z,9.90
2023-01-12T00:47:23.781Z,10.23
2023-01-12T00:49:50.254Z,5.33
2023-01-12T00:52:30.045Z,7.73
2023-01-12T00:54:58.272Z,9.70
2023-01-12T00:57:24.724Z,8.43
2023-01-12T00:59:54.846Z,8.30
2023-01-12T01:02:21.483Z,9.50
2023-01-12T01:04:47.940Z,10.63
2023-01-12T01:07:15.953Z,8.40
2023-01-12T01:09:43.153Z,7.90
2023-01-12T01:12:10.101Z,9.43
2023-01-12T01:14:37.262Z,10.30
2023-01-12T01:17:03.903Z,13.83
2023-01-12T01:19:30.381Z,5.40
2023-01-12T01:21:56.893Z,8.30
2023-01-12T01:24:23.734Z,8.77
2023-01-12T01:26:51.391Z,10.27
2023-01-12T01:29:17.818Z,8.57
2023-01-12T01:31:44.273Z,8.23
2023-01-12T01:34:10.636Z,7.60
2023-01-12T01:36:37.269Z,8.97
2023-01-12T01:39:03.751Z,6.13
2023-01-12T01:41:32.056Z,8.00
2023-01-12T01:44:04.188Z,6.77
2023-01-12T01:46:40.579Z,5.37
2023-01-12T01:49:24.603Z,4.90
2023-01-12T01:51:59.580Z,6.00
2023-01-12T01:54:30.090Z,5.37
2023-01-12T01:56:57.434Z,3.80
2023-01-12T01:59:28.228Z,6.20
2023-01-12T02:01:55.124Z,7.40
2023-01-12T02:04:22.198Z,5.63
2023-01-12T02:06:49.302Z,6.37
2023-01-12T02:09:21.225Z,3.80
2023-01-12T02:12:07.064Z,4.27
2023-01-12T02:14:52.449Z,4.27
2023-01-12T02:17:44.122Z,6.07
2023-01-12T02:20:29.043Z,5.63
2023-01-12T02:23:01.363Z,5.27
2023-01-12T02:26:02.128Z,6.33
2023-01-12T02:29:06.171Z,6.47
2023-01-12T02:31:56.915Z,5.40
2023-01-12T02:34:49.810Z,7.47
2023-01-12T02:37:32.700Z,7.67
2023-01-12T02:40:11.287Z,8.60
2023-01-12T02:42:42.152Z,8.67
2023-01-12T02:45:21.455Z,8.70
2023-01-12T02:48:06.815Z,7.03
2023-01-12T02:50:45.348Z,10.53
2023-01-12T02:53:29.879Z,9.70
2023-01-12T02:56:00.627Z,9.20
2023-01-12T02:58:31.797Z,9.13
2023-01-12T03:01:00.774Z,9.67
2023-01-12T03:03:27.979Z,9.17
2023-01-12T03:05:59.574Z,7.23
2023-01-12T03:08:29.334Z,6.57
2023-01-12T03:11:04.995Z,6.43
2023-01-12T03:13:35.032Z,7.67
2023-01-12T03:16:04.560Z,7.07
2023-01-12T03:18:36.945Z,6.33
2023-01-12T03:21:11.659Z,5.33
2023-01-12T03:23:47.437Z,5.50
2023-01-12T03:26:16.846Z,9.13
2023-01-12T03:28:47.997Z,10.80
2023-01-12T03:31:15.436Z,7.90
2023-01-12T03:33:43.455Z,8.17
2023-01-12T03:36:19.560Z,4.93
2023-01-12T03:38:50.066Z,7.13
2023-01-12T03:41:28.389Z,5.50
2023-01-12T03:43:59.409Z,5.40
2023-01-12T03:46:36.582Z,8.33
2023-01-12T03:49:11.037Z,10.23
2023-01-12T03:51:41.827Z,5.13
2023-01-12T03:54:10.979Z,4.63
2023-01-12T03:56:39.625Z,6.73
2023-01-12T03:59:06.450Z,5.33
2023-01-12T04:01:33.198Z,6.03
2023-01-12T04:03:59.616Z,8.20
2023-01-12T04:06:26.085Z,8.47
2023-01-12T04:08:52.622Z,11.23
2023-01-12T04:11:38.329Z,8.77
2023-01-12T04:14:04.755Z,8.13
2023-01-12T04:16:31.197Z,8.50
2023-01-12T04:18:57.658Z,7.47
2023-01-12T04:21:43.123Z,5.33
2023-01-12T04:24:09.697Z,11.07
2023-01-12T04:26:36.068Z,8.77
2023-01-12T04:29:02.927Z,6.67
2023-01-12T04:31:29.369Z,7.07
2023-01-12T04:33:55.790Z,5.73
2023-01-12T04:36:22.208Z,6.57
2023-01-12T04:38:49.081Z,6.17
2023-01-12T04:41:15.476Z,5.83
2023-01-12T04:43:41.934Z,9.53
2023-01-12T04:46:10.512Z,7.57
2023-01-12T04:48:43.499Z,7.97
2023-01-12T04:51:10.008Z,9.10
2023-01-12T04:53:36.562Z,6.60
2023-01-12T04:56:07.617Z,5.83
2023-01-12T04:58:35.051Z,6.77
2023-01-12T05:01:19.245Z,5.30
2023-01-12T05:03:45.893Z,7.07
2023-01-12T05:06:12.511Z,4.97
2023-01-12T05:08:58.300Z,3.53
2023-01-12T05:11:29.167Z,6.70
2023-01-12T05:13:56.932Z,5.87
2023-01-12T05:16:24.064Z,5.20
2023-01-12T05:18:50.858Z,3.27
2023-01-12T05:21:21.975Z,2.57
2023-01-12T05:23:50.133Z,5.30
2023-01-12T05:26:16.643Z,6.03
2023-01-12T05:28:43.185Z,2.87
2023-01-12T05:31:12.687Z,5.77
2023-01-12T05:33:41.685Z,4.53
2023-01-12T05:36:10.869Z,3.13
2023-01-12T05:38:37.470Z,5.37
2023-01-12T05:41:07.377Z,5.57
2023-01-12T05:43:52.464Z,4.50
2023-01-12T05:46:30.938Z,4.77
2023-01-12T05:48:58.084Z,7.80
2023-01-12T05:51:26.434Z,3.00
2023-01-12T05:53:54.028Z,4.80
2023-01-12T05:56:27.999Z,3.77
2023-01-12T05:58:57.195Z,6.20
2023-01-12T06:01:23.914Z,2.20
2023-01-12T06:03:55.800Z,3.40
2023-01-12T06:06:23.288Z,2.70
2023-01-12T06:08:52.469Z,5.47
2023-01-12T06:11:39.223Z,4.20
2023-01-12T06:14:06.603Z,3.67
2023-01-12T06:16:33.209Z,3.57
2023-01-12T06:18:59.585Z,3.80
2023-01-12T06:21:26.038Z,5.20
2023-01-12T06:23:52.416Z,2.20
2023-01-12T06:26:18.847Z,5.63
2023-01-12T06:28:45.266Z,4.20
2023-01-12T06:31:13.624Z,2.90
2023-01-12T06:33:40.552Z,3.90
2023-01-12T06:36:08.263Z,3.00
2023-01-12T06:38:35.534Z,5.23
2023-01-12T06:41:29.655Z,1.20
2023-01-12T06:43:56.620Z,3.50
2023-01-12T06:46:23.381Z,2.33
2023-01-12T06:48:49.873Z,3.33
2023-01-12T06:51:16.255Z,2.80
2023-01-12T06:53:42.680Z,2.77
2023-01-12T06:56:09.186Z,1.17
2023-01-12T06:58:35.566Z,2.57
2023-01-12T07:01:04.915Z,1.60
2023-01-12T07:03:31.335Z,2.23
2023-01-12T07:05:59.271Z,1.13
2023-01-12T07:08:25.941Z,2.27
2023-01-12T07:10:52.420Z,3.00
2023-01-12T07:13:18.819Z,1.47
2023-01-12T07:15:45.265Z,1.20
2023-01-12T07:18:11.866Z,1.20
2023-01-12T07:20:38.369Z,2.47
2023-01-12T07:23:04.829Z,1.67
2023-01-12T07:25:31.264Z,0.93
2023-01-12T07:27:58.448Z,1.53
2023-01-12T07:30:26.062Z,1.20
2023-01-12T07:32:53.036Z,1.73
2023-01-12T07:35:19.826Z,1.63
2023-01-12T07:37:56.003Z,1.63
2023-01-12T07:40:22.531Z,2.47
2023-01-12T07:42:49.012Z,1.07
2023-01-12T07:45:15.655Z,1.53
2023-01-12T07:47:42.071Z,1.40
2023-01-12T07:50:09.373Z,1.10
2023-01-12T07:52:36.205Z,1.27
2023-01-12T07:55:02.686Z,1.57
2023-01-12T07:57:29.632Z,2.00
2023-01-12T07:59:56.022Z,0.83
2023-01-12T08:02:22.477Z,1.20
2023-01-12T08:04:49.089Z,1.90
2023-01-12T08:07:15.477Z,0.83
2023-01-12T08:09:42.101Z,1.27
2023-01-12T08:12:08.841Z,0.67
2023-01-12T08:14:37.820Z,1.20
2023-01-12T08:17:10.880Z,0.90
2023-01-12T08:19:43.605Z,0.70
2023-01-12T08:22:16.498Z,0.50
2023-01-12T08:24:51.975Z,0.70
2023-01-12T08:27:22.486Z,0.97
2023-01-12T08:29:52.556Z,1.37
2023-01-12T08:32:19.484Z,1.90
2023-01-12T08:34:50.226Z,1.10
2023-01-12T08:37:21.002Z,0.70
2023-01-12T08:39:48.516Z,0.97
2023-01-12T08:42:14.922Z,1.67
2023-01-12T08:44:41.888Z,2.43
2023-01-12T08:47:20.913Z,1.00
2023-01-12T08:49:47.404Z,0.70
2023-01-12T08:52:15.345Z,2.93
2023-01-12T08:54:42.028Z,1.13
2023-01-12T08:57:08.701Z,1.67
2023-01-12T08:59:35.306Z,0.50
2023-01-12T09:02:02.355Z,1.20
2023-01-12T09:04:28.910Z,0.77
2023-01-12T09:06:55.536Z,1.03
2023-01-12T09:09:22.436Z,1.70
2023-01-12T09:11:49.612Z,1.17
2023-01-12T09:14:16.492Z,0.80
2023-01-12T09:16:43.595Z,0.77
2023-01-12T09:19:10.397Z,0.87
2023-01-12T09:21:39.828Z,1.73
2023-01-12T09:24:06.969Z,1.43
2023-01-12T09:26:38.650Z,0.70
2023-01-12T09:29:05.752Z,0.70
2023-01-12T09:31:33.142Z,0.40
2023-01-12T09:33:59.664Z,0.40
2023-01-12T09:36:44.776Z,0.93
2023-01-12T09:39:26.943Z,0.60
2023-01-12T09:42:12.879Z,0.60
2023-01-12T09:45:00.573Z,0.67
2023-01-12T09:47:35.253Z,0.50
2023-01-12T09:50:09.521Z,1.83
2023-01-12T09:53:07.102Z,1.00
2023-01-12T09:55:42.942Z,1.67
2023-01-12T09:58:36.543Z,0.63
2023-01-12T10:01:14.650Z,0.87
2023-01-12T10:03:44.081Z,0.47
2023-01-12T10:06:16.103Z,2.00
2023-01-12T10:08:56.634Z,0.80
2023-01-12T10:11:34.434Z,1.53
2023-01-12T10:14:27.503Z,1.30
2023-01-12T10:17:18.114Z,1.40
2023-01-12T10:20:08.675Z,1.63
2023-01-12T10:22:48.845Z,0.70
2023-01-12T10:25:31.062Z,0.60
2023-01-12T10:28:00.398Z,1.37
2023-01-12T10:30:38.729Z,0.67
2023-01-12T10:33:10.914Z,2.53
2023-01-12T10:35:48.578Z,0.87
2023-01-12T10:38:22.847Z,0.93
2023-01-12T10:41:10.228Z,0.77
2023-01-12T10:43:38.502Z,0.93
2023-01-12T10:46:08.696Z,0.90
2023-01-12T10:48:36.195Z,1.17
2023-01-12T10:51:27.752Z,0.90
2023-01-12T10:54:00.170Z,1.03
2023-01-12T10:56:41.604Z,1.00
2023-01-12T10:59:14.138Z,0.70
2023-01-12T11:01:43.576Z,0.80
2023-01-12T11:04:14.736Z,0.70
2023-01-12T11:06:54.946Z,0.83
2023-01-12T11:09:26.949Z,0.90
2023-01-12T11:11:58.514Z,1.43
2023-01-12T11:14:37.965Z,0.90
2023-01-12T11:17:52.845Z,1.37
2023-01-12T11:20:30.853Z,0.90
2023-01-12T11:23:02.232Z,1.43
2023-01-12T11:25:36.071Z,1.67
2023-01-12T11:28:18.764Z,1.43
2023-01-12T11:30:56.830Z,2.07
2023-01-12T11:33:55.654Z,1.30
2023-01-12T11:36:28.833Z,1.43
2023-01-12T11:39:12.732Z,2.13
2023-01-12T11:41:41.385Z,1.70
2023-01-12T11:44:24.537Z,2.17
2023-01-12T11:46:56.844Z,2.17
2023-01-12T11:49:31.792Z,2.27
2023-01-12T11:51:59.842Z,2.17
2023-01-12T11:54:28.774Z,2.23
2023-01-12T11:57:23.965Z,1.90
2023-01-12T12:00:09.035Z,3.33
2023-01-12T12:02:41.688Z,1.90
2023-01-12T12:05:43.195Z,2.73
2023-01-12T12:08:25.272Z,2.57
2023-01-12T12:11:02.262Z,1.50
2023-01-12T12:13:39.651Z,1.50
2023-01-12T12:16:18.708Z,3.27
2023-01-12T12:19:07.046Z,1.60
2023-01-12T12:21:47.612Z,1.83
2023-01-12T12:24:38.770Z,1.67
2023-01-12T12:27:17.303Z,2.53
2023-01-12T12:29:56.123Z,1.50
2023-01-12T12:32:53.136Z,1.90
2023-01-12T12:35:28.617Z,1.87
2023-01-12T12:38:21.646Z,1.73
2023-01-12T12:41:41.398Z,1.70
2023-01-12T12:44:41.545Z,2.00
2023-01-12T12:47:33.840Z,2.03
2023-01-12T12:50:01.909Z,2.77
2023-01-12T12:52:35.932Z,2.17
2023-01-12T12:55:03.913Z,3.60
2023-01-12T12:57:30.373Z,2.13
2023-01-12T12:59:59.821Z,1.90
2023-01-12T13:02:53.990Z,2.20
2023-01-12T13:05:46.879Z,2.27
2023-01-12T13:08:23.092Z,2.10
2023-01-12T13:10:52.048Z,2.43
2023-01-12T13:13:31.375Z,2.00
2023-01-12T13:16:19.691Z,2.27
2023-01-12T13:18:48.911Z,2.60
2023-01-12T13:21:28.440Z,3.23
2023-01-12T13:24:18.367Z,3.97
2023-01-12T13:26:47.429Z,2.37
2023-01-12T13:29:29.201Z,2.50
2023-01-12T13:32:35.502Z,2.40
2023-01-12T13:35:02.855Z,2.20
2023-01-12T13:37:51.686Z,2.20
2023-01-12T13:40:37.906Z,3.57
2023-01-12T13:43:15.627Z,3.43
2023-01-12T13:46:03.825Z,2.20
2023-01-12T13:48:34.256Z,2.53
2023-01-12T13:51:25.722Z,2.83
2023-01-12T13:54:00.464Z,2.47
2023-01-12T13:56:27.570Z,2.53
2023-01-12T13:59:03.060Z,2.47
2023-01-12T14:01:39.324Z,2.87
2023-01-12T14:04:33.046Z,2.50
2023-01-12T14:07:18.297Z,2.60
2023-01-12T14:10:19.327Z,2.67
2023-01-12T14:13:33.794Z,2.97
2023-01-12T14:16:21.430Z,2.23
2023-01-12T14:18:49.588Z,2.17
2023-01-12T14:21:30.000Z,4.20
2023-01-12T14:24:15.909Z,2.70
2023-01-12T14:26:42.387Z,2.37
2023-01-12T14:29:12.848Z,4.70
2023-01-12T14:31:45.557Z,2.30
2023-01-12T14:34:29.145Z,2.87
2023-01-12T14:36:56.407Z,2.40
2023-01-12T14:39:26.412Z,2.17
2023-01-12T14:42:15.665Z,3.37
2023-01-12T14:45:18.832Z,2.53
2023-01-12T14:47:45.350Z,4.37
2023-01-12T14:50:14.544Z,2.53
2023-01-12T14:52:42.911Z,2.70
2023-01-12T14:55:25.603Z,2.20
2023-01-12T14:57:59.142Z,1.90
2023-01-12T15:00:30.508Z,1.83
2023-01-12T15:02:59.368Z,2.17
2023-01-12T15:05:28.873Z,2.07
2023-01-12T15:08:06.485Z,2.37
2023-01-12T15:10:36.075Z,2.47
2023-01-12T15:13:18.199Z,2.70
2023-01-12T15:16:03.434Z,1.80
2023-01-12T15:18:48.571Z,1.70
2023-01-12T15:21:34.102Z,2.73
2023-01-12T15:24:19.111Z,1.77
2023-01-12T15:26:46.808Z,2.60
2023-01-12T15:29:15.749Z,2.70
2023-01-12T15:31:42.316Z,3.27
2023-01-12T15:34:11.253Z,1.93
2023-01-12T15:36:37.642Z,3.40
2023-01-12T15:39:04.027Z,1.50
2023-01-12T15:41:50.506Z,1.70
2023-01-12T15:44:20.278Z,1.83
2023-01-12T15:46:47.530Z,2.07
2023-01-12T15:49:14.912Z,1.70
2023-01-12T15:51:43.947Z,2.20
2023-01-12T15:54:12.075Z,1.53
2023-01-12T15:56:38.468Z,1.50
2023-01-12T15:59:05.632Z,1.60
2023-01-12T16:01:38.329Z,1.97
2023-01-12T16:04:40.401Z,3.07
2023-01-12T16:06:52.739Z,2.30
2023-01-12T16:09:19.958Z,3.00
2023-01-12T16:11:46.438Z,2.30
2023-01-12T16:14:13.816Z,1.70
2023-01-12T16:16:41.241Z,2.23
2023-01-12T16:19:09.377Z,2.37
2023-01-12T16:21:36.313Z,3.33
2023-01-12T16:24:03.647Z,2.00
2023-01-12T16:26:30.279Z,1.80
2023-01-12T16:28:57.818Z,3.27
2023-01-12T16:31:25.461Z,3.50
2023-01-12T16:33:51.933Z,2.00
2023-01-12T16:36:18.549Z,2.30
2023-01-12T16:38:45.082Z,2.30
2023-01-12T16:41:15.460Z,3.43
2023-01-12T16:43:41.879Z,1.77
2023-01-12T16:46:08.352Z,1.80
2023-01-12T16:48:35.483Z,2.33
2023-01-12T16:51:02.692Z,2.00
2023-01-12T16:53:29.397Z,2.57
2023-01-12T16:55:59.859Z,1.60
2023-01-12T16:58:26.544Z,1.93
2023-01-12T17:00:53.118Z,2.57
2023-01-12T17:03:19.879Z,5.20
2023-01-12T17:05:48.051Z,2.10
2023-01-12T17:08:14.896Z,1.77
2023-01-12T17:10:41.452Z,3.07
2023-01-12T17:13:07.832Z,3.77
2023-01-12T17:15:35.253Z,1.80
2023-01-12T17:18:02.032Z,3.63
2023-01-12T17:20:28.617Z,1.90
2023-01-12T17:22:55.325Z,1.63
2023-01-12T17:25:21.950Z,1.47
2023-01-12T17:27:48.386Z,2.00
2023-01-12T17:30:15.010Z,3.83
2023-01-12T17:32:41.464Z,2.07
2023-01-12T17:35:09.541Z,2.23
2023-01-12T17:37:37.629Z,1.83
2023-01-12T17:40:04.969Z,2.30
2023-01-12T17:42:50.349Z,1.40
2023-01-12T17:45:16.805Z,1.87
2023-01-12T17:47:43.308Z,1.23
2023-01-12T17:50:10.579Z,2.07
2023-01-12T17:52:37.012Z,1.40
2023-01-12T17:55:04.261Z,2.30
2023-01-12T17:57:31.517Z,1.30
2023-01-12T17:59:58.684Z,1.10
2023-01-12T18:02:25.422Z,1.37
2023-01-12T18:04:51.926Z,1.20
2023-01-12T18:07:18.334Z,1.40
2023-01-12T18:09:44.805Z,1.40
2023-01-12T18:12:12.244Z,2.07
2023-01-12T18:14:38.953Z,1.30
2023-01-12T18:17:05.387Z,1.47
2023-01-12T18:19:33.266Z,1.00
2023-01-12T18:22:05.699Z,1.77
2023-01-12T18:24:33.673Z,1.20
2023-01-12T18:27:00.804Z,1.87
2023-01-12T18:29:28.370Z,1.20
2023-01-12T18:31:54.869Z,1.20
2023-01-12T18:34:21.377Z,1.20
2023-01-12T18:36:47.794Z,1.70
2023-01-12T18:39:18.025Z,0.97
2023-01-12T18:42:04.673Z,2.33
2023-01-12T18:44:32.621Z,1.83
2023-01-12T18:47:19.037Z,1.50
2023-01-12T18:49:47.372Z,2.00
2023-01-12T18:52:33.918Z,1.37
2023-01-12T18:55:00.784Z,1.43
2023-01-12T18:57:30.457Z,1.73
2023-01-12T19:00:00.521Z,2.23
2023-01-12T19:02:28.829Z,1.73
2023-01-12T19:05:17.632Z,1.40
2023-01-12T19:08:04.375Z,1.67
2023-01-12T19:10:32.366Z,1.73
2023-01-12T19:13:17.858Z,1.80
2023-01-12T19:16:02.892Z,1.43
2023-01-12T19:18:29.485Z,1.40
2023-01-12T19:21:14.706Z,1.57
2023-01-12T19:23:59.721Z,1.13
2023-01-12T19:26:45.111Z,0.90
2023-01-12T19:29:11.521Z,1.30
2023-01-12T19:31:38.739Z,1.77
2023-01-12T19:34:05.174Z,1.40
2023-01-12T19:36:31.790Z,1.10
2023-01-12T19:39:00.418Z,1.30
2023-01-12T19:41:45.552Z,1.20
2023-01-12T19:44:11.969Z,1.10
2023-01-12T19:46:39.029Z,1.60
2023-01-12T19:49:05.616Z,1.43
2023-01-12T19:51:32.135Z,1.60
2023-01-12T19:53:59.780Z,1.20
2023-01-12T19:56:26.951Z,1.40
2023-01-12T19:58:54.875Z,1.30
2023-01-12T20:01:22.946Z,1.30
2023-01-12T20:03:50.772Z,2.57
2023-01-12T20:06:17.789Z,1.63
2023-01-12T20:08:44.671Z,1.43
2023-01-12T20:11:12.048Z,1.53
2023-01-12T20:13:39.003Z,1.57
2023-01-12T20:16:10.321Z,1.20
2023-01-12T20:18:37.510Z,1.33
2023-01-12T20:21:11.420Z,1.10
2023-01-12T20:23:37.954Z,1.73
2023-01-12T20:26:08.459Z,1.30
2023-01-12T20:28:35.327Z,1.40
2023-01-12T20:31:07.816Z,1.20
2023-01-12T20:33:34.675Z,1.03
2023-01-12T20:36:08.698Z,1.00
2023-01-12T20:38:42.523Z,1.00
2023-01-12T20:41:15.492Z,1.17
2023-01-12T20:43:49.600Z,1.27
2023-01-12T20:46:29.150Z,1.43
2023-01-12T20:49:00.076Z,1.97
2023-01-12T20:51:31.135Z,1.53
2023-01-12T20:54:03.791Z,3.13
2023-01-12T20:56:37.306Z,1.93
2023-01-12T20:59:12.597Z,3.13
2023-01-12T21:01:56.369Z,3.20
2023-01-12T21:04:23.347Z,2.23
2023-01-12T21:06:49.791Z,1.60
2023-01-12T21:09:16.210Z,2.13
2023-01-12T21:11:42.789Z,1.77
2023-01-12T21:14:09.168Z,3.90
2023-01-12T21:16:35.596Z,2.17
2023-01-12T21:19:04.779Z,3.23
2023-01-12T21:21:31.235Z,3.43
2023-01-12T21:23:57.901Z,3.07
2023-01-12T21:26:24.993Z,2.27
2023-01-12T21:28:51.970Z,1.80
2023-01-12T21:31:18.436Z,1.90
2023-01-12T21:33:44.923Z,4.23
2023-01-12T21:36:13.072Z,1.70
2023-01-12T21:38:39.887Z,2.13
2023-01-12T21:41:07.009Z,1.50
2023-01-12T21:43:35.264Z,1.60
2023-01-12T21:46:07.574Z,2.90
2023-01-12T21:48:34.504Z,1.73
2023-01-12T21:51:02.858Z,1.83
2023-01-12T21:53:29.314Z,2.37
2023-01-12T21:55:58.768Z,2.17
2023-01-12T21:58:26.270Z,1.30
2023-01-12T22:00:53.122Z,1.97
2023-01-12T22:03:23.062Z,1.40
2023-01-12T22:05:50.624Z,1.93
2023-01-12T22:08:17.098Z,1.63
2023-01-12T22:10:43.689Z,2.77
2023-01-12T22:13:15.311Z,1.37
2023-01-12T22:15:42.492Z,2.00
2023-01-12T22:18:09.796Z,1.47
2023-01-12T22:20:36.288Z,1.40
2023-01-12T22:23:02.751Z,1.50
2023-01-12T22:25:29.262Z,1.30
2023-01-12T22:27:56.715Z,2.13
2023-01-12T22:30:24.303Z,1.37
2023-01-12T22:32:54.602Z,1.67
2023-01-12T22:35:21.805Z,2.60
2023-01-12T22:37:48.251Z,1.33
2023-01-12T22:40:15.796Z,2.23
2023-01-12T22:43:00.875Z,1.37
2023-01-12T22:45:27.681Z,1.60
2023-01-12T22:47:55.815Z,1.80
2023-01-12T22:50:23.926Z,2.00
2023-01-12T22:52:55.365Z,1.70
2023-01-12T22:55:23.175Z,1.60
2023-01-12T22:57:49.657Z,1.70
2023-01-12T23:00:18.347Z,2.57
2023-01-12T23:03:01.991Z,1.83
2023-01-12T23:05:37.398Z,2.17
2023-01-12T23:08:05.711Z,1.80
2023-01-12T23:10:32.921Z,1.60
2023-01-12T23:13:14.008Z,1.90
2023-01-12T23:15:45.739Z,1.60
2023-01-12T23:18:15.054Z,2.57
2023-01-12T23:20:42.751Z,1.80
2023-01-12T23:23:10.724Z,1.87
2023-01-12T23:25:37.904Z,2.13
2023-01-12T23:28:05.914Z,1.70
2023-01-12T23:30:32.971Z,1.90
2023-01-12T23:33:04.217Z,2.03
2023-01-12T23:35:35.957Z,2.50
2023-01-12T23:38:03.766Z,1.97
2023-01-12T23:40:30.434Z,1.97
2023-01-12T23:42:57.235Z,2.33
2023-01-12T23:45:24.229Z,2.70
2023-01-12T23:47:51.679Z,2.70
2023-01-12T23:50:18.295Z,2.43
2023-01-12T23:52:44.922Z,2.43
2023-01-12T23:55:11.523Z,2.00
2023-01-12T23:57:38.106Z,2.10
